Time;durP1;ratioP1;P1;durP2;ratioP2;P2;SDS_P1;SDS_P2;PMS_P1;PMS_P2;Temp;Humidity;BMP_temperature;BMP_pressure;BME280_temperature;BME280_humidity;BME280_pressure;Samples;Min_cycle;Max_cycle;Signal;HPM_P1;HPM_P2
2022/05/21 00:00:11;;;;;;;6.97;5.07;;;15.00;99.90;;;;;;4153294;28;20034;-69
2022/05/21 00:02:12;;;;;;;7.85;4.88;;;15.00;99.90;;;;;;4157581;28;20036;-68
2022/05/21 00:04:13;;;;;;;8.32;4.60;;;15.00;99.90;;;;;;4155782;28;20030;-67
2022/05/21 00:06:14;;;;;;;7.63;5.22;;;15.00;99.90;;;;;;4154089;28;20041;-69
2022/05/21 00:08:14;;;;;;;7.35;5.15;;;15.00;99.90;;;;;;4157633;28;20126;-68
2022/05/21 00:10:16;;;;;;;8.65;5.32;;;14.90;99.90;;;;;;4152941;28;20034;-68
2022/05/21 00:12:17;;;;;;;7.03;5.50;;;14.90;99.90;;;;;;4159159;28;20091;-68
2022/05/21 00:14:20;;;;;;;8.57;5.63;;;14.90;99.90;;;;;;4155139;28;20042;-68
2022/05/21 00:16:20;;;;;;;11.70;5.90;;;14.90;99.90;;;;;;4153416;28;20112;-68
2022/05/21 00:18:21;;;;;;;7.07;5.15;;;14.80;99.90;;;;;;4152842;28;20038;-68
2022/05/21 00:22:41;;;;;;;9.45;6.13;;;14.80;99.90;;;;;;4158625;28;20033;-67
2022/05/21 00:24:41;;;;;;;6.88;5.90;;;14.80;99.90;;;;;;4152100;28;20040;-67
2022/05/21 00:26:42;;;;;;;8.18;6.05;;;14.80;99.90;;;;;;4169240;28;20041;-68
2022/05/21 00:28:48;;;;;;;8.18;6.28;;;14.80;99.90;;;;;;4158906;28;20038;-68
2022/05/21 00:30:49;;;;;;;10.55;6.57;;;14.80;99.90;;;;;;4156265;28;20097;-68
2022/05/21 00:32:50;;;;;;;8.10;6.35;;;14.80;99.90;;;;;;4157827;28;20930;-68
2022/05/21 00:34:50;;;;;;;8.88;6.30;;;14.70;99.90;;;;;;4161554;28;20028;-68
2022/05/21 00:36:51;;;;;;;9.15;6.85;;;14.70;99.90;;;;;;4155806;28;20029;-68
2022/05/21 00:38:52;;;;;;;9.10;6.78;;;14.70;99.90;;;;;;4157673;28;20096;-68
2022/05/21 00:40:54;;;;;;;8.25;6.43;;;14.70;99.90;;;;;;4157572;28;20057;-67
2022/05/21 00:42:55;;;;;;;11.40;6.57;;;14.70;99.90;;;;;;4159805;28;20050;-68
2022/05/21 00:44:55;;;;;;;12.05;7.45;;;14.60;99.90;;;;;;4158620;28;20305;-68
2022/05/21 00:46:56;;;;;;;9.02;6.28;;;14.60;99.90;;;;;;4159209;28;20540;-68
2022/05/21 00:49:08;;;;;;;7.20;5.63;;;14.60;99.90;;;;;;4159682;28;20108;-67
2022/05/21 00:51:14;;;;;;;11.93;6.43;;;14.60;99.90;;;;;;4156085;28;20501;-68
2022/05/21 00:53:15;;;;;;;7.32;5.75;;;14.60;99.90;;;;;;4155461;28;20044;-68
2022/05/21 00:55:23;;;;;;;10.30;6.55;;;14.50;99.90;;;;;;4160092;28;20116;-68
2022/05/21 00:57:30;;;;;;;7.80;5.95;;;14.50;99.90;;;;;;4158316;28;20033;-68
2022/05/21 00:59:51;;;;;;;8.75;6.15;;;14.50;99.90;;;;;;4156798;28;20038;-68
2022/05/21 01:01:56;;;;;;;7.43;5.78;;;14.50;99.90;;;;;;4154032;28;20408;-68
2022/05/21 01:03:57;;;;;;;8.32;6.10;;;14.40;99.90;;;;;;4155608;28;20032;-68
2022/05/21 01:06:00;;;;;;;6.40;5.22;;;14.40;99.90;;;;;;4158804;28;20128;-68
2022/05/21 01:08:02;;;;;;;6.15;5.28;;;14.40;99.90;;;;;;4158598;28;20120;-67
2022/05/21 01:10:03;;;;;;;6.28;5.30;;;14.40;99.90;;;;;;4160613;28;20056;-68
2022/05/21 01:12:06;;;;;;;7.15;4.75;;;14.40;99.90;;;;;;4160271;28;20068;-68
2022/05/21 01:14:10;;;;;;;6.00;4.78;;;14.40;99.90;;;;;;4157632;28;20033;-68
2022/05/21 01:16:11;;;;;;;5.28;4.35;;;14.30;99.90;;;;;;4156703;28;20029;-68
2022/05/21 01:18:12;;;;;;;7.93;4.75;;;14.40;99.90;;;;;;4154529;28;20030;-67
2022/05/21 01:20:18;;;;;;;8.25;4.38;;;14.40;99.90;;;;;;4158219;28;20033;-68
2022/05/21 01:22:22;;;;;;;6.78;3.92;;;14.40;99.90;;;;;;4159235;28;20040;-68
2022/05/21 01:24:23;;;;;;;7.75;3.67;;;14.40;99.90;;;;;;4158323;28;20029;-68
2022/05/21 01:26:23;;;;;;;6.30;4.00;;;14.50;99.90;;;;;;4157874;28;20036;-68
2022/05/21 01:28:27;;;;;;;8.63;3.95;;;14.40;99.90;;;;;;4154767;28;20060;-68
2022/05/21 01:30:34;;;;;;;6.10;3.80;;;14.40;99.90;;;;;;4159708;28;20042;-67
2022/05/21 01:32:35;;;;;;;8.85;4.05;;;14.40;99.90;;;;;;4154365;28;20063;-68
2022/05/21 01:34:36;;;;;;;8.95;3.42;;;14.40;99.90;;;;;;4158918;28;20116;-68
2022/05/21 01:36:36;;;;;;;4.32;2.97;;;14.40;99.90;;;;;;4158588;28;20556;-68
2022/05/21 01:38:38;;;;;;;5.03;3.25;;;14.40;99.90;;;;;;4151608;28;20022;-68
2022/05/21 01:40:38;;;;;;;7.10;3.17;;;14.30;99.90;;;;;;4154293;28;20033;-68
2022/05/21 01:42:39;;;;;;;14.55;3.63;;;14.40;99.90;;;;;;4152973;28;20505;-68
2022/05/21 01:44:40;;;;;;;7.93;3.55;;;14.40;99.90;;;;;;4147103;28;20041;-67
2022/05/21 01:46:41;;;;;;;4.75;2.90;;;14.40;99.90;;;;;;4158888;28;20485;-68
2022/05/21 01:48:42;;;;;;;5.10;2.65;;;14.30;99.90;;;;;;4150332;28;20034;-68
2022/05/21 01:50:42;;;;;;;3.58;2.60;;;14.40;99.90;;;;;;4148388;28;20061;-68
2022/05/21 01:52:44;;;;;;;5.38;2.67;;;14.40;99.90;;;;;;4154125;28;20036;-67
2022/05/21 01:54:44;;;;;;;5.40;2.75;;;14.30;99.90;;;;;;4151880;28;20045;-68
2022/05/21 01:56:45;;;;;;;5.00;2.70;;;14.40;99.90;;;;;;4149593;28;20033;-68
2022/05/21 01:58:45;;;;;;;4.68;2.28;;;14.30;99.90;;;;;;4156958;28;20507;-68
2022/05/21 02:00:46;;;;;;;3.63;2.22;;;14.30;99.90;;;;;;4150097;28;20072;-68
2022/05/21 02:02:47;;;;;;;8.27;2.80;;;14.30;99.90;;;;;;4154142;28;20068;-68
2022/05/21 02:04:47;;;;;;;4.93;2.25;;;14.30;99.90;;;;;;4157787;28;20108;-68
2022/05/21 02:06:49;;;;;;;4.50;2.50;;;14.30;99.90;;;;;;4155188;28;20586;-68
2022/05/21 02:08:49;;;;;;;4.47;2.15;;;14.30;99.90;;;;;;4152758;28;20071;-68
2022/05/21 02:10:51;;;;;;;3.47;2.10;;;14.30;99.90;;;;;;4153166;28;20099;-67
2022/05/21 02:12:51;;;;;;;7.35;2.47;;;14.30;99.90;;;;;;4154804;28;20113;-68
2022/05/21 02:14:52;;;;;;;3.55;2.20;;;14.30;99.90;;;;;;4154512;28;20126;-68
2022/05/21 02:16:53;;;;;;;9.18;2.47;;;14.30;99.90;;;;;;4159302;28;20057;-68
2022/05/21 02:18:54;;;;;;;2.78;2.00;;;14.30;99.90;;;;;;4154325;28;20105;-68
2022/05/21 02:20:54;;;;;;;5.68;2.50;;;14.30;99.90;;;;;;4157246;28;20087;-68
2022/05/21 02:22:55;;;;;;;3.55;2.00;;;14.30;99.90;;;;;;4153436;28;20066;-68
2022/05/21 02:24:56;;;;;;;4.75;2.38;;;14.30;99.90;;;;;;4148395;28;20099;-68
2022/05/21 02:26:56;;;;;;;5.60;2.30;;;14.30;99.90;;;;;;4155351;28;20034;-67
2022/05/21 02:28:57;;;;;;;4.55;2.40;;;14.30;99.90;;;;;;4154790;28;20037;-68
2022/05/21 02:30:57;;;;;;;3.95;2.22;;;14.20;99.90;;;;;;4157254;28;20072;-68
2022/05/21 02:32:58;;;;;;;7.70;2.88;;;14.20;99.90;;;;;;4161334;28;20044;-68
2022/05/21 02:34:58;;;;;;;3.63;2.33;;;14.20;99.90;;;;;;4156451;28;20033;-67
2022/05/21 02:39:29;;;;;;;3.90;2.20;;;14.20;99.90;;;;;;4156289;28;20029;-68
2022/05/21 02:41:29;;;;;;;5.10;2.47;;;14.20;99.90;;;;;;4151811;28;20116;-68
2022/05/21 02:43:30;;;;;;;5.70;2.30;;;14.30;99.90;;;;;;4159526;28;20038;-67
2022/05/21 02:45:30;;;;;;;7.80;2.80;;;14.20;99.90;;;;;;4160239;28;20033;-68
2022/05/21 02:47:31;;;;;;;4.63;2.30;;;14.20;99.90;;;;;;4156535;28;20390;-67
2022/05/21 02:49:32;;;;;;;7.55;2.58;;;14.20;99.90;;;;;;4162971;28;20120;-68
2022/05/21 02:51:33;;;;;;;8.27;3.13;;;14.30;99.90;;;;;;4152794;28;20036;-68
2022/05/21 02:53:34;;;;;;;4.75;2.83;;;14.20;99.90;;;;;;4153016;28;20042;-68
2022/05/21 02:55:35;;;;;;;8.35;3.15;;;14.20;99.90;;;;;;4154026;28;20046;-67
2022/05/21 02:57:35;;;;;;;8.57;3.15;;;14.10;99.90;;;;;;4159263;28;20034;-68
2022/05/21 02:59:37;;;;;;;10.40;4.03;;;14.10;99.90;;;;;;4157155;28;20041;-67
2022/05/21 03:01:38;;;;;;;8.60;3.80;;;14.20;99.90;;;;;;4155642;28;20424;-68
2022/05/21 03:03:39;;;;;;;9.57;3.90;;;14.20;99.90;;;;;;4157715;28;20096;-68
2022/05/21 03:05:40;;;;;;;5.88;3.28;;;14.20;99.90;;;;;;4156673;28;20469;-68
2022/05/21 03:07:45;;;;;;;6.93;3.40;;;14.20;99.90;;;;;;4153505;28;20441;-68
2022/05/21 03:12:05;;;;;;;5.65;3.67;;;14.20;99.90;;;;;;4156871;28;20037;-68
2022/05/21 03:14:06;;;;;;;6.55;3.72;;;14.20;99.90;;;;;;4153802;28;20409;-68
2022/05/21 03:16:07;;;;;;;11.65;4.35;;;14.20;99.90;;;;;;4159614;28;20026;-67
2022/05/21 03:18:11;;;;;;;7.10;3.95;;;14.20;99.90;;;;;;4159090;28;20409;-68
2022/05/21 03:20:13;;;;;;;9.05;4.07;;;14.20;99.90;;;;;;4154545;28;20030;-68
2022/05/21 03:22:13;;;;;;;8.98;4.45;;;14.20;99.90;;;;;;4154878;28;20041;-67
2022/05/21 03:24:14;;;;;;;9.88;4.78;;;14.20;99.90;;;;;;4153462;28;20034;-67
2022/05/21 03:26:15;;;;;;;11.57;4.35;;;14.20;99.90;;;;;;4154746;28;20036;-67
2022/05/21 03:28:17;;;;;;;8.80;4.47;;;14.20;99.90;;;;;;4158751;28;20039;-68
2022/05/21 03:30:20;;;;;;;;;;;14.20;99.90;;;;;;4156044;28;20078;-68
2022/05/21 03:32:20;;;;;;;19.35;5.55;;;14.20;99.90;;;;;;4155649;28;19909;-68
2022/05/21 03:34:21;;;;;;;9.23;4.65;;;14.20;99.90;;;;;;4155242;28;20042;-68
2022/05/21 03:36:21;;;;;;;8.82;4.35;;;14.20;99.90;;;;;;4158596;28;20045;-67
2022/05/21 03:38:22;;;;;;;9.43;4.55;;;14.20;99.90;;;;;;4161738;28;20060;-68
2022/05/21 03:40:25;;;;;;;12.20;4.32;;;14.30;99.90;;;;;;4152589;28;20037;-68
2022/05/21 03:42:26;;;;;;;8.35;4.57;;;14.30;99.90;;;;;;4156889;28;20056;-68
2022/05/21 03:44:27;;;;;;;8.32;3.72;;;14.30;99.90;;;;;;4158878;28;20047;-68
2022/05/21 03:46:28;;;;;;;11.80;4.10;;;14.30;99.90;;;;;;4149902;28;20533;-68
2022/05/21 03:48:28;;;;;;;10.73;4.20;;;14.30;99.90;;;;;;4156951;28;20033;-67
2022/05/21 03:50:31;;;;;;;7.30;3.60;;;14.30;99.90;;;;;;4158704;28;20037;-68
2022/05/21 03:52:32;;;;;;;7.80;3.25;;;14.20;99.90;;;;;;4158348;28;20037;-67
2022/05/21 03:54:33;;;;;;;6.15;3.17;;;14.30;99.90;;;;;;4155156;28;20034;-67
2022/05/21 03:56:34;;;;;;;9.82;3.58;;;14.30;99.90;;;;;;4154594;28;20034;-68
2022/05/21 03:58:34;;;;;;;8.18;4.15;;;14.30;99.90;;;;;;4154445;28;20102;-67
2022/05/21 04:00:38;;;;;;;6.63;4.00;;;14.30;99.90;;;;;;4149952;28;20536;-67
2022/05/21 04:02:39;;;;;;;8.25;3.70;;;14.30;99.90;;;;;;4156304;28;20045;-68
2022/05/21 04:04:39;;;;;;;7.53;3.78;;;14.30;99.90;;;;;;4156341;28;20068;-68
2022/05/21 04:06:40;;;;;;;13.20;4.03;;;14.40;99.90;;;;;;4159799;28;20049;-68
2022/05/21 04:08:41;;;;;;;8.93;3.33;;;14.40;99.90;;;;;;4153258;28;20089;-68
2022/05/21 04:10:42;;;;;;;10.73;4.22;;;14.40;99.90;;;;;;4156352;28;20022;-67
2022/05/21 04:12:43;;;;;;;6.95;3.60;;;14.40;99.90;;;;;;4158091;28;20037;-68
2022/05/21 04:14:43;;;;;;;5.85;3.28;;;14.40;99.90;;;;;;4158482;28;20041;-67
2022/05/21 04:16:44;;;;;;;9.43;4.35;;;14.40;99.90;;;;;;4154482;28;20496;-67
2022/05/21 04:18:44;;;;;;;9.68;4.05;;;14.40;99.90;;;;;;4153117;28;20116;-68
2022/05/21 04:20:46;;;;;;;9.25;3.90;;;14.40;99.90;;;;;;4155968;28;20028;-68
2022/05/21 04:22:46;;;;;;;9.80;3.72;;;14.40;99.90;;;;;;4156855;28;20026;-68
2022/05/21 04:24:47;;;;;;;7.13;3.63;;;14.50;99.90;;;;;;4150219;28;20614;-68
2022/05/21 04:26:47;;;;;;;6.47;3.30;;;14.40;99.90;;;;;;4158370;28;20508;-68
2022/05/21 04:28:48;;;;;;;8.43;3.70;;;14.40;99.90;;;;;;4154824;28;20034;-67
2022/05/21 04:30:49;;;;;;;9.85;3.70;;;14.40;99.90;;;;;;4155530;28;20030;-68
2022/05/21 04:32:49;;;;;;;10.52;3.88;;;14.40;99.90;;;;;;4154281;28;20481;-68
2022/05/21 04:34:50;;;;;;;5.63;3.60;;;14.40;99.90;;;;;;4155051;28;20466;-68
2022/05/21 04:36:50;;;;;;;13.45;4.40;;;14.40;99.90;;;;;;4155773;28;20535;-68
2022/05/21 04:38:53;;;;;;;9.20;4.30;;;14.30;99.90;;;;;;4158460;28;20409;-68
2022/05/21 04:40:54;;;;;;;10.35;3.95;;;14.40;99.90;;;;;;4159228;28;20090;-68
2022/05/21 04:42:55;;;;;;;8.00;3.40;;;14.30;99.90;;;;;;4159150;28;20180;-68
2022/05/21 04:44:56;;;;;;;12.48;4.05;;;14.40;99.90;;;;;;4156236;28;20042;-68
2022/05/21 04:47:00;;;;;;;8.15;3.35;;;14.30;99.90;;;;;;4154617;28;20040;-68
2022/05/21 04:49:01;;;;;;;9.75;4.20;;;14.40;99.90;;;;;;4155575;28;20444;-68
2022/05/21 04:51:03;;;;;;;9.38;4.43;;;14.30;99.90;;;;;;4159175;28;20026;-68
2022/05/21 04:53:04;;;;;;;6.07;3.63;;;14.40;99.90;;;;;;4159945;28;20029;-68
2022/05/21 04:55:08;;;;;;;9.90;4.20;;;14.40;99.90;;;;;;4158972;28;20030;-68
2022/05/21 04:57:09;;;;;;;9.10;3.47;;;14.40;99.90;;;;;;4153269;28;20034;-68
2022/05/21 04:59:10;;;;;;;10.73;4.72;;;14.40;99.90;;;;;;4149410;28;20033;-68
2022/05/21 05:01:11;;;;;;;9.25;4.25;;;14.40;99.90;;;;;;4156051;28;20105;-68
2022/05/21 05:03:13;;;;;;;12.45;5.07;;;14.50;99.90;;;;;;4149377;28;20021;-68
2022/05/21 05:05:14;;;;;;;12.15;5.32;;;14.40;99.90;;;;;;4159536;28;20025;-68
2022/05/21 05:07:19;;;;;;;12.57;5.00;;;14.40;99.90;;;;;;4158018;28;20049;-68
2022/05/21 05:09:22;;;;;;;9.95;4.68;;;14.40;99.90;;;;;;4149877;28;20038;-68
2022/05/21 05:11:23;;;;;;;8.48;4.20;;;14.40;99.90;;;;;;4154334;28;20041;-68
2022/05/21 05:13:24;;;;;;;9.45;4.65;;;14.40;99.90;;;;;;4151434;28;20064;-68
2022/05/21 05:15:25;;;;;;;9.68;4.90;;;14.40;99.90;;;;;;4160154;28;20056;-68
2022/05/21 05:17:26;;;;;;;9.27;4.85;;;14.50;99.90;;;;;;4158047;28;20048;-68
2022/05/21 05:19:29;;;;;;;9.48;4.85;;;14.40;99.90;;;;;;4157829;28;20042;-68
2022/05/21 05:21:30;;;;;;;13.15;5.20;;;14.40;99.90;;;;;;4157190;28;20378;-68
2022/05/21 05:23:31;;;;;;;8.43;4.53;;;14.50;99.90;;;;;;4155136;28;20088;-68
2022/05/21 05:25:32;;;;;;;13.07;5.30;;;14.50;99.90;;;;;;4153189;28;20030;-69
2022/05/21 05:27:33;;;;;;;11.47;5.17;;;14.50;99.90;;;;;;4152293;28;20042;-69
2022/05/21 05:29:34;;;;;;;13.07;6.05;;;14.50;99.90;;;;;;4154605;28;20026;-69
2022/05/21 05:31:35;;;;;;;11.90;5.20;;;14.40;99.90;;;;;;4155501;28;20060;-69
2022/05/21 05:33:36;;;;;;;10.27;5.30;;;14.50;99.90;;;;;;4154064;28;20041;-70
2022/05/21 05:35:36;;;;;;;11.48;5.25;;;14.40;99.90;;;;;;4155190;28;20386;-72
2022/05/21 05:37:38;;;;;;;13.73;5.43;;;14.40;99.90;;;;;;4156310;28;20083;-70
2022/05/21 05:39:38;;;;;;;11.75;6.05;;;14.50;99.90;;;;;;4153176;28;20141;-71
2022/05/21 05:41:39;;;;;;;10.05;4.75;;;14.40;99.90;;;;;;4155433;28;20029;-69
2022/05/21 05:43:40;;;;;;;8.40;4.88;;;14.40;99.90;;;;;;4152393;28;20046;-70
2022/05/21 05:45:41;;;;;;;11.25;4.93;;;14.40;99.90;;;;;;4152951;28;20469;-70
2022/05/21 05:47:42;;;;;;;11.15;5.35;;;14.40;99.90;;;;;;4154358;28;20519;-70
2022/05/21 05:49:43;;;;;;;16.20;5.20;;;14.50;99.90;;;;;;4157818;28;20037;-70
2022/05/21 05:51:43;;;;;;;11.50;4.75;;;14.50;99.90;;;;;;4154915;28;20026;-70
2022/05/21 05:53:45;;;;;;;14.27;5.20;;;14.50;99.90;;;;;;4159186;28;20040;-70
2022/05/21 05:55:47;;;;;;;15.55;5.55;;;14.50;99.90;;;;;;4154808;28;20037;-70
2022/05/21 05:57:52;;;;;;;14.48;5.53;;;14.50;99.90;;;;;;4150777;28;20121;-70
2022/05/21 05:59:52;;;;;;;13.73;5.53;;;14.50;99.90;;;;;;4156992;28;20036;-70
2022/05/21 06:02:57;;;;;;;13.85;5.22;;;14.50;99.90;;;;;;4156505;28;20038;-71
2022/05/21 06:04:13;;;;;;;10.68;4.72;;;14.50;99.90;;;;;;4150867;28;20041;-70
2022/05/21 06:06:14;;;;;;;10.68;4.95;;;14.50;99.90;;;;;;4157643;28;20559;-70
2022/05/21 06:08:16;;;;;;;11.23;5.25;;;14.60;99.90;;;;;;4155663;28;20449;-70
2022/05/21 06:10:24;;;;;;;15.35;5.45;;;14.60;99.90;;;;;;4166994;28;20045;-70
2022/05/21 06:12:24;;;;;;;8.48;4.43;;;14.70;99.90;;;;;;4157478;28;20045;-69
2022/05/21 06:14:25;;;;;;;11.55;5.63;;;14.70;99.90;;;;;;4155757;28;20160;-70
2022/05/21 06:16:26;;;;;;;11.50;5.53;;;14.70;99.90;;;;;;4153413;28;20091;-70
2022/05/21 06:18:27;;;;;;;17.25;6.22;;;14.70;99.90;;;;;;4155815;28;20392;-69
2022/05/21 06:20:27;;;;;;;11.95;5.30;;;14.70;99.90;;;;;;4155439;28;20092;-70
2022/05/21 06:22:28;;;;;;;13.23;5.30;;;14.70;99.90;;;;;;4154528;28;20038;-69
2022/05/21 06:24:33;;;;;;;11.00;5.10;;;14.80;99.90;;;;;;4156011;28;20055;-70
2022/05/21 06:26:33;;;;;;;10.63;5.60;;;14.80;99.90;;;;;;4158344;28;20036;-69
2022/05/21 06:28:34;;;;;;;9.60;4.65;;;14.80;99.90;;;;;;4158360;28;20033;-69
2022/05/21 06:30:37;;;;;;;11.70;5.32;;;14.90;99.90;;;;;;4155359;28;20026;-69
2022/05/21 06:32:38;;;;;;;14.40;5.70;;;14.90;99.90;;;;;;4157159;28;20389;-71
2022/05/21 06:34:39;;;;;;;16.15;6.65;;;14.90;99.90;;;;;;4153404;28;20034;-70
2022/05/21 06:36:39;;;;;;;8.85;5.25;;;14.90;99.90;;;;;;4156425;28;20050;-70
2022/05/21 06:38:41;;;;;;;15.23;5.47;;;14.90;99.90;;;;;;4159300;28;20038;-70
2022/05/21 06:40:42;;;;;;;12.88;5.18;;;14.90;99.90;;;;;;4152368;28;20049;-70
2022/05/21 06:42:43;;;;;;;11.82;5.53;;;15.00;99.90;;;;;;4155780;28;20046;-70
2022/05/21 06:44:43;;;;;;;18.73;6.65;;;15.00;99.90;;;;;;4158539;28;20030;-70
2022/05/21 06:46:44;;;;;;;20.58;6.65;;;14.90;99.90;;;;;;4153241;28;20121;-71
2022/05/21 06:48:44;;;;;;;17.70;6.03;;;14.90;99.90;;;;;;4155548;28;20026;-71
2022/05/21 06:50:46;;;;;;;13.77;5.15;;;14.90;99.90;;;;;;4154759;28;20038;-70
2022/05/21 06:52:47;;;;;;;13.55;6.00;;;15.00;99.90;;;;;;4155691;28;20017;-70
2022/05/21 06:54:47;;;;;;;12.15;5.53;;;15.00;99.90;;;;;;4154728;28;20044;-71
2022/05/21 06:56:49;;;;;;;17.20;7.25;;;15.00;99.90;;;;;;4156862;28;20053;-70
2022/05/21 06:58:50;;;;;;;14.02;5.43;;;15.00;99.90;;;;;;4154638;28;20524;-71
2022/05/21 07:00:51;;;;;;;11.95;5.82;;;15.00;99.90;;;;;;4154076;28;20037;-71
2022/05/21 07:02:55;;;;;;;10.13;5.10;;;15.00;99.90;;;;;;4153020;28;20496;-71
2022/05/21 07:07:35;;;;;;;14.27;6.20;;;15.10;99.90;;;;;;4156279;28;20041;-71
2022/05/21 07:09:35;;;;;;;10.38;5.45;;;15.10;99.90;;;;;;4171362;28;20476;-70
2022/05/21 07:11:37;;;;;;;18.10;6.13;;;15.10;99.90;;;;;;4156691;28;20030;-71
2022/05/21 07:13:37;;;;;;;13.90;6.00;;;15.10;99.90;;;;;;4158463;28;20036;-71
2022/05/21 07:15:38;;;;;;;11.50;5.80;;;15.10;99.90;;;;;;4160977;28;20424;-71
2022/05/21 07:17:39;;;;;;;16.50;6.65;;;15.20;99.90;;;;;;4159208;28;20125;-70
2022/05/21 07:19:40;;;;;;;12.50;6.03;;;15.10;99.90;;;;;;4160448;28;20044;-70
2022/05/21 07:21:40;;;;;;;13.75;6.43;;;15.10;99.90;;;;;;4155052;28;20025;-70
2022/05/21 07:23:41;;;;;;;14.65;6.40;;;15.10;99.90;;;;;;4161837;28;20485;-70
2022/05/21 07:25:42;;;;;;;15.32;6.30;;;15.10;99.90;;;;;;4158191;28;20389;-70
2022/05/21 07:27:42;;;;;;;15.13;7.35;;;15.10;99.90;;;;;;4159730;28;20045;-70
2022/05/21 07:29:44;;;;;;;13.93;6.30;;;15.10;99.90;;;;;;4160385;28;20105;-70
2022/05/21 07:31:45;;;;;;;17.38;6.95;;;15.10;99.90;;;;;;4159725;28;20657;-70
2022/05/21 07:33:46;;;;;;;12.20;6.70;;;15.10;99.90;;;;;;4158605;28;20038;-70
2022/05/21 07:35:47;;;;;;;17.70;7.63;;;15.10;99.90;;;;;;4160606;28;20037;-70
2022/05/21 07:37:48;;;;;;;15.23;6.50;;;15.10;99.90;;;;;;4160669;28;20059;-70
2022/05/21 07:39:48;;;;;;;12.50;7.15;;;15.10;99.90;;;;;;4160683;28;20057;-70
2022/05/21 07:41:49;;;;;;;11.70;5.95;;;15.20;99.90;;;;;;4159265;28;20121;-70
2022/05/21 07:43:49;;;;;;;17.88;6.82;;;15.20;99.90;;;;;;4160364;28;20049;-71
2022/05/21 07:45:50;;;;;;;19.30;7.30;;;15.20;99.90;;;;;;4158999;28;20113;-71
2022/05/21 07:47:51;;;;;;;16.50;7.03;;;15.20;99.90;;;;;;4161102;28;20046;-70
2022/05/21 07:49:56;;;;;;;17.02;6.80;;;15.20;99.90;;;;;;4159633;28;20064;-70
2022/05/21 07:51:59;;;;;;;17.27;7.47;;;15.30;99.90;;;;;;4153988;28;20044;-70
2022/05/21 07:53:59;;;;;;;19.90;7.30;;;15.30;99.90;;;;;;4159640;28;20041;-69
2022/05/21 07:56:00;;;;;;;15.70;7.68;;;15.30;99.90;;;;;;4156443;28;20033;-70
2022/05/21 07:58:00;;;;;;;19.42;8.02;;;15.30;99.90;;;;;;4158397;28;20025;-70
2022/05/21 08:00:06;;;;;;;17.13;7.90;;;15.30;99.90;;;;;;4160275;28;20503;-70
2022/05/21 08:02:11;;;;;;;18.23;8.25;;;15.40;99.90;;;;;;4157160;28;20408;-70
2022/05/21 08:04:12;;;;;;;22.65;7.45;;;15.50;99.90;;;;;;4158890;28;20030;-70
2022/05/21 08:06:14;;;;;;;17.73;7.70;;;15.60;99.90;;;;;;4160052;28;20041;-70
2022/05/21 08:08:15;;;;;;;21.73;8.13;;;15.60;99.90;;;;;;4159633;28;20046;-71
2022/05/21 08:10:16;;;;;;;19.58;8.02;;;15.70;99.90;;;;;;4158075;28;20168;-71
2022/05/21 08:12:18;;;;;;;20.73;7.75;;;15.70;99.90;;;;;;4159473;28;20045;-71
2022/05/21 08:14:18;;;;;;;19.70;7.78;;;15.80;99.90;;;;;;4158036;28;20049;-71
2022/05/21 08:16:19;;;;;;;14.27;6.82;;;15.80;99.90;;;;;;4158220;28;20044;-71
2022/05/21 08:18:20;;;;;;;12.65;6.45;;;15.90;99.90;;;;;;4157671;28;20106;-70
2022/05/21 08:20:21;;;;;;;17.27;7.07;;;16.00;99.90;;;;;;4157249;28;20036;-70
2022/05/21 08:27:01;;;;;;;15.02;6.07;;;16.20;99.90;;;;;;4157183;28;20042;-70
2022/05/21 08:29:03;;;;;;;18.05;7.07;;;16.30;99.90;;;;;;4158634;28;20041;-69
2022/05/21 08:31:03;;;;;;;18.48;7.60;;;16.30;99.90;;;;;;4157686;28;20477;-70
2022/05/21 08:33:06;;;;;;;20.08;7.82;;;16.30;99.90;;;;;;4159426;28;20097;-71
2022/05/21 08:35:07;;;;;;;23.85;7.55;;;16.30;99.90;;;;;;4156732;28;20107;-70
2022/05/21 08:37:08;;;;;;;19.35;6.97;;;16.30;99.90;;;;;;4158371;28;20038;-71
2022/05/21 08:39:11;;;;;;;17.25;7.25;;;16.30;99.90;;;;;;4157057;28;20049;-71
2022/05/21 08:41:22;;;;;;;16.17;7.00;;;16.30;99.90;;;;;;4155524;28;20105;-71
2022/05/21 08:43:47;;;;;;;13.13;6.15;;;16.30;99.90;;;;;;4158347;28;20053;-71
2022/05/21 08:46:02;;;;;;;16.98;7.15;;;16.30;99.90;;;;;;4155017;28;20529;-71
2022/05/21 08:48:07;;;;;;;17.38;6.97;;;16.30;99.90;;;;;;4157116;28;20500;-70
2022/05/21 08:50:17;;;;;;;17.85;7.28;;;16.40;99.90;;;;;;4157494;28;20034;-71
2022/05/21 08:52:37;;;;;;;13.52;6.72;;;16.40;99.90;;;;;;4157766;28;20492;-71
2022/05/21 08:54:43;;;;;;;17.92;7.97;;;16.30;99.90;;;;;;4156282;28;20546;-71
2022/05/21 08:56:43;;;;;;;20.67;8.18;;;16.40;99.90;;;;;;4158566;28;20084;-71
2022/05/21 08:58:48;;;;;;;23.38;8.02;;;16.40;99.90;;;;;;4158447;28;20422;-71
2022/05/21 09:00:49;;;;;;;16.50;7.90;;;16.40;99.90;;;;;;4158519;28;20046;-71
2022/05/21 09:02:50;;;;;;;20.80;8.82;;;16.40;99.90;;;;;;4160683;28;20052;-71
2022/05/21 09:04:51;;;;;;;14.07;7.03;;;16.20;99.90;;;;;;4156097;28;20427;-71
2022/05/21 09:06:57;;;;;;;21.10;8.63;;;16.20;99.90;;;;;;4158699;28;20050;-71
2022/05/21 09:09:27;;;;;;;19.85;7.78;;;16.20;99.90;;;;;;4159996;28;20025;-69
2022/05/21 09:11:43;;;;;;;18.33;7.88;;;16.20;99.90;;;;;;4157687;28;20036;-69
2022/05/21 09:14:21;;;;;;;19.00;7.72;;;16.20;99.90;;;;;;4156670;28;20132;-70
2022/05/21 09:18:41;;;;;;;16.08;7.40;;;16.30;99.90;;;;;;4156508;28;20392;-71
2022/05/21 09:21:08;;;;;;;17.33;8.35;;;16.40;99.90;;;;;;4156602;28;20030;-71
2022/05/21 09:23:11;;;;;;;17.38;7.97;;;16.60;99.90;;;;;;4155236;28;20079;-72
2022/05/21 09:25:22;;;;;;;20.27;7.60;;;16.70;99.90;;;;;;4157086;28;20044;-71
2022/05/21 09:27:31;;;;;;;18.08;8.23;;;16.90;99.90;;;;;;4158645;28;20083;-70
2022/05/21 09:29:34;;;;;;;20.05;8.35;;;17.10;99.90;;;;;;4155295;28;20037;-70
2022/05/21 09:31:34;;;;;;;30.50;8.82;;;17.30;99.90;;;;;;4155779;28;20030;-72
2022/05/21 09:33:45;;;;;;;16.63;7.70;;;17.30;99.90;;;;;;4156195;28;20041;-71
2022/05/21 09:35:55;;;;;;;20.15;8.45;;;17.40;99.90;;;;;;4153886;28;20037;-71
2022/05/21 09:37:58;;;;;;;20.38;7.35;;;17.50;99.90;;;;;;4157399;28;20047;-70
2022/05/21 09:40:00;;;;;;;13.90;6.97;;;17.60;99.90;;;;;;4154942;28;20064;-71
2022/05/21 09:47:13;;;;;;;14.15;6.45;;;17.80;99.90;;;;;;4156065;28;20030;-69
2022/05/21 09:49:23;;;;;;;13.05;6.60;;;17.90;99.90;;;;;;4154825;28;20034;-70
2022/05/21 09:51:29;;;;;;;15.02;7.03;;;18.00;99.90;;;;;;4157139;28;20040;-71
2022/05/21 09:53:36;;;;;;;16.17;6.63;;;18.10;99.90;;;;;;4159758;28;20108;-71
2022/05/21 09:55:36;;;;;;;17.50;6.40;;;18.10;99.90;;;;;;4152613;28;20034;-70
2022/05/21 09:57:42;;;;;;;12.30;6.25;;;18.10;99.90;;;;;;4157925;28;20370;-72
2022/05/21 10:00:18;;;;;;;15.20;6.03;;;18.20;99.90;;;;;;4155825;28;20361;-70
2022/05/21 10:02:19;;;;;;;15.10;6.55;;;18.20;99.90;;;;;;4155133;28;20033;-70
2022/05/21 10:04:32;;;;;;;13.32;5.93;;;18.20;99.90;;;;;;4152809;28;20025;-71
2022/05/21 10:06:38;;;;;;;12.90;6.10;;;18.30;99.90;;;;;;4154832;28;20049;-71
2022/05/21 10:11:10;;;;;;;11.55;5.35;;;18.40;99.90;;;;;;4156613;28;20108;-70
2022/05/21 10:13:12;;;;;;;14.27;5.90;;;18.30;99.90;;;;;;4154911;28;20127;-71
2022/05/21 10:15:17;;;;;;;14.02;6.32;;;18.30;99.90;;;;;;4156268;28;20037;-72
2022/05/21 10:17:22;;;;;;;12.13;4.88;;;18.30;99.90;;;;;;4156552;28;20056;-70
2022/05/21 10:19:26;;;;;;;11.00;4.72;;;18.50;99.90;;;;;;4152428;28;20446;-71
2022/05/21 10:21:36;;;;;;;15.60;5.85;;;18.50;99.90;;;;;;4155949;28;20080;-69
2022/05/21 10:23:49;;;;;;;15.07;5.65;;;18.60;99.90;;;;;;4150137;28;20512;-70
2022/05/21 10:26:18;;;;;;;10.02;4.70;;;18.70;99.90;;;;;;4149734;28;20414;-71
2022/05/21 10:28:47;;;;;;;14.13;4.72;;;18.80;99.90;;;;;;4158431;28;20040;-71
2022/05/21 10:31:13;;;;;;;12.18;5.15;;;18.90;99.90;;;;;;4155275;28;20030;-71
2022/05/21 10:33:37;;;;;;;11.65;4.95;;;19.00;99.90;;;;;;4154795;28;20441;-71
2022/05/21 10:36:12;;;;;;;12.15;5.05;;;19.10;99.90;;;;;;4153418;28;20033;-71
2022/05/21 10:38:24;;;;;;;13.05;5.03;;;19.20;99.90;;;;;;4154955;28;20053;-71
2022/05/21 10:40:41;;;;;;;8.57;4.75;;;19.30;99.90;;;;;;4154078;28;20044;-71
2022/05/21 10:43:01;;;;;;;12.85;5.05;;;19.40;99.90;;;;;;4151302;28;20586;-70
2022/05/21 10:45:07;;;;;;;10.55;4.22;;;19.40;99.90;;;;;;4152218;28;20088;-70
2022/05/21 10:47:36;;;;;;;13.18;5.20;;;19.40;99.90;;;;;;4158135;28;20099;-69
2022/05/21 10:50:02;;;;;;;9.45;4.88;;;19.40;99.90;;;;;;4154820;28;20042;-70
2022/05/21 10:52:15;;;;;;;8.20;4.47;;;19.50;99.90;;;;;;4152595;28;20041;-70
2022/05/21 10:54:43;;;;;;;15.55;4.95;;;19.60;99.90;;;;;;4157077;28;20030;-72
2022/05/21 10:57:09;;;;;;;9.52;4.15;;;19.60;99.90;;;;;;4158181;28;20087;-70
2022/05/21 10:59:28;;;;;;;16.63;5.20;;;19.70;99.90;;;;;;4151983;28;20057;-71
2022/05/21 11:01:54;;;;;;;10.45;4.60;;;19.70;99.90;;;;;;4154402;28;20365;-72